createdAt,value
2018-05-18T00:18:30.882Z,23.23
2018-05-18T00:20:59.161Z,24.20
2018-05-18T00:23:27.429Z,24.30
2018-05-18T00:25:54.936Z,23.57
2018-05-18T00:28:22.438Z,26.93
2018-05-18T00:30:49.942Z,26.87
2018-05-18T00:33:17.448Z,26.53
2018-05-18T00:35:44.964Z,24.97
2018-05-18T00:38:12.473Z,25.93
2018-05-18T00:40:39.976Z,25.50
2018-05-18T00:43:07.484Z,26.07
2018-05-18T00:45:34.993Z,27.63
2018-05-18T00:48:02.519Z,25.90
2018-05-18T00:50:30.802Z,26.27
2018-05-18T00:52:59.084Z,28.80
2018-05-18T00:55:43.670Z,28.13
2018-05-18T00:58:11.210Z,28.00
2018-05-18T01:00:39.489Z,27.73
2018-05-18T01:03:07.764Z,27.47
2018-05-18T01:05:36.038Z,28.57
2018-05-18T01:08:04.313Z,27.57
2018-05-18T01:10:32.593Z,28.30
2018-05-18T01:13:16.242Z,28.00
2018-05-18T01:15:43.809Z,28.43
2018-05-18T01:18:11.268Z,26.77
2018-05-18T02:27:02.906Z,25.80
2018-05-18T02:29:30.413Z,22.17
2018-05-18T02:31:57.922Z,24.17
2018-05-18T02:34:25.715Z,25.67
2018-05-18T02:36:53.237Z,24.00
2018-05-18T02:39:20.750Z,24.93
2018-05-18T02:41:48.269Z,23.93
2018-05-18T02:44:15.774Z,23.87
2018-05-18T02:46:43.284Z,24.37
2018-05-18T02:49:10.789Z,23.70
2018-05-18T02:51:38.304Z,22.93
2018-05-18T02:54:05.813Z,23.57
2018-05-18T02:56:33.321Z,22.57
2018-05-18T02:59:00.835Z,24.03
2018-05-18T03:01:28.341Z,22.17
2018-05-18T03:03:55.853Z,20.63
2018-05-18T03:06:23.361Z,19.57
2018-05-18T03:08:50.864Z,20.20
2018-05-18T03:11:18.370Z,20.20
2018-05-18T03:16:38.429Z,19.50
2018-05-18T03:24:52.627Z,19.37
2018-05-18T03:27:20.134Z,18.97
2018-05-18T03:29:47.642Z,19.63
2018-05-18T03:32:15.145Z,18.83
2018-05-18T03:34:42.650Z,19.40
2018-05-18T03:37:10.157Z,18.73
2018-05-18T03:39:37.665Z,16.77
2018-05-18T03:42:05.174Z,19.20
2018-05-18T03:44:32.677Z,17.93
2018-05-18T03:47:00.180Z,18.93
2018-05-18T03:49:27.686Z,17.60
2018-05-18T03:51:55.954Z,17.80
2018-05-18T03:54:24.225Z,16.37
2018-05-18T03:56:52.504Z,17.60
2018-05-18T03:59:20.782Z,16.13
2018-05-18T04:02:00.733Z,16.67
2018-05-18T04:04:40.833Z,16.47
2018-05-18T04:07:20.749Z,15.53
2018-05-18T04:09:49.067Z,15.27
2018-05-18T04:12:16.615Z,16.37
2018-05-18T04:20:57.021Z,16.27
2018-05-18T04:23:24.526Z,15.53
2018-05-18T04:25:52.027Z,16.40
2018-05-18T04:28:19.530Z,16.57
2018-05-18T04:30:47.030Z,16.50
2018-05-18T04:33:15.302Z,17.67
2018-05-18T04:35:43.577Z,16.60
2018-05-18T04:38:11.848Z,13.83
2018-05-18T04:40:40.114Z,14.00
2018-05-18T04:43:07.630Z,15.13
2018-05-18T04:45:35.128Z,15.80
2018-05-18T04:48:02.630Z,16.13
2018-05-18T04:50:30.133Z,17.07
2018-05-18T04:52:57.637Z,15.77
2018-05-18T04:55:25.138Z,15.87
2018-05-18T04:57:52.641Z,16.60
2018-05-18T05:00:20.908Z,16.23
2018-05-18T05:02:48.413Z,15.83
2018-05-18T05:05:15.913Z,16.10
2018-05-18T05:07:43.413Z,16.93
2018-05-18T05:10:10.921Z,15.53
2018-05-18T05:18:51.445Z,17.70
2018-05-18T05:21:18.949Z,16.90
2018-05-18T05:26:39.358Z,17.40
2018-05-18T05:29:06.869Z,16.60
2018-05-18T05:31:34.374Z,19.00
2018-05-18T05:34:01.878Z,18.43
2018-05-18T05:36:29.381Z,22.47
2018-05-18T05:38:56.893Z,19.60
2018-05-18T05:41:24.397Z,19.90
2018-05-18T05:43:51.913Z,20.03
2018-05-18T05:46:19.421Z,17.27
2018-05-18T05:48:46.930Z,16.57
2018-05-18T05:51:14.432Z,18.27
2018-05-18T05:53:41.937Z,17.50
2018-05-18T05:56:09.438Z,18.47
2018-05-18T05:58:37.705Z,18.10
2018-05-18T06:01:05.976Z,15.30
2018-05-18T06:03:33.485Z,18.47
2018-05-18T06:06:00.994Z,17.57
2018-05-18T06:08:28.501Z,17.10
2018-05-18T06:10:56.009Z,16.83
2018-05-18T06:13:23.521Z,17.67
2018-05-18T06:15:51.025Z,16.30
2018-05-18T06:18:31.300Z,16.40
2018-05-18T07:12:45.768Z,16.53
2018-05-18T07:15:13.273Z,16.13
2018-05-18T08:24:35.990Z,16.87
2018-05-18T08:27:16.050Z,19.67
2018-05-18T08:29:44.346Z,15.00
2018-05-18T08:32:11.853Z,15.50
2018-05-18T08:34:39.367Z,15.87
2018-05-18T08:37:06.872Z,15.63
2018-05-18T08:39:34.379Z,14.63
2018-05-18T08:42:01.881Z,15.97
2018-05-18T08:44:29.443Z,15.50
2018-05-18T08:46:56.914Z,14.60
2018-05-18T08:49:24.413Z,14.17
2018-05-18T08:51:51.920Z,14.27
2018-05-18T08:54:19.425Z,14.20
2018-05-18T08:56:46.928Z,14.00
2018-05-18T08:59:14.430Z,14.87
2018-05-18T09:01:42.697Z,13.70
2018-05-18T09:04:10.204Z,13.90
2018-05-18T09:06:37.708Z,13.83
2018-05-18T09:09:06.027Z,14.23
2018-05-18T09:11:33.532Z,14.53
2018-05-18T09:14:07.294Z,14.37
2018-05-18T09:16:34.799Z,14.87
2018-05-18T09:22:18.630Z,15.23
2018-05-18T10:13:45.465Z,15.67
2018-05-18T10:16:13.756Z,15.40
2018-05-18T11:13:06.405Z,15.73
2018-05-18T11:15:33.933Z,15.87
2018-05-18T11:18:02.205Z,16.50
2018-05-18T11:20:49.965Z,16.00
2018-05-18T11:23:36.775Z,15.87
2018-05-18T11:26:04.309Z,17.07
2018-05-18T11:28:32.584Z,17.07
2018-05-18T11:31:00.862Z,15.17
2018-05-18T11:33:29.141Z,16.10
2018-05-18T11:35:57.416Z,16.70
2018-05-18T11:38:25.686Z,15.33
2018-05-18T11:40:53.975Z,15.50
2018-05-18T11:43:22.249Z,15.33
2018-05-18T11:45:50.522Z,15.97
2018-05-18T11:48:18.796Z,15.60
2018-05-18T11:50:47.078Z,14.70
2018-05-18T11:53:15.359Z,14.60
2018-05-18T11:55:43.632Z,14.77
2018-05-18T11:58:11.909Z,15.60
2018-05-18T12:00:40.193Z,15.33
2018-05-18T12:03:08.466Z,14.77
2018-05-18T12:05:36.741Z,15.50
2018-05-18T12:08:05.020Z,15.20
2018-05-18T12:10:33.297Z,16.23
2018-05-18T12:16:07.836Z,15.33
2018-05-18T12:18:55.806Z,16.50
2018-05-18T12:21:23.345Z,15.73
2018-05-18T13:12:44.950Z,16.50
2018-05-18T13:15:12.477Z,15.47
2018-05-18T13:23:26.253Z,15.47
2018-05-18T13:25:53.757Z,15.73
2018-05-18T13:28:21.277Z,15.43
2018-05-18T13:30:48.785Z,14.23
2018-05-18T13:33:16.288Z,15.40
2018-05-18T13:35:43.794Z,15.67
2018-05-18T13:38:11.297Z,15.20
2018-05-18T13:40:39.571Z,15.20
2018-05-18T13:43:07.857Z,15.27
2018-05-18T13:45:35.372Z,14.77
2018-05-18T13:48:02.881Z,16.03
2018-05-18T13:50:30.390Z,16.00
2018-05-18T13:52:57.906Z,14.87
2018-05-18T13:55:25.410Z,15.70
2018-05-18T13:57:52.923Z,14.93
2018-05-18T14:00:20.436Z,15.43
2018-05-18T14:02:47.955Z,20.70
2018-05-18T14:05:15.463Z,16.40
2018-05-18T14:07:42.973Z,16.23
2018-05-18T14:10:10.497Z,14.53
2018-05-18T14:21:30.336Z,12.27
2018-05-18T14:23:58.609Z,12.20
2018-05-18T14:26:26.888Z,11.30
2018-05-18T14:28:55.172Z,11.20
2018-05-18T14:31:23.446Z,10.03
2018-05-18T14:33:51.717Z,10.27
2018-05-18T14:36:19.993Z,10.67
2018-05-18T14:38:48.260Z,9.50
2018-05-18T14:41:15.764Z,10.67
2018-05-18T14:43:45.093Z,10.67
2018-05-18T14:46:11.557Z,15.53
2018-05-18T14:48:39.065Z,10.73
2018-05-18T14:51:06.596Z,10.97
2018-05-18T14:53:34.854Z,9.80
2018-05-18T14:56:03.129Z,10.07
2018-05-18T14:58:30.648Z,11.17
2018-05-18T15:00:58.161Z,10.20
2018-05-18T15:03:26.434Z,10.43
2018-05-18T15:05:54.708Z,10.23
2018-05-18T15:08:22.982Z,10.23
2018-05-18T15:10:51.302Z,11.23
2018-05-18T15:13:19.548Z,10.63
2018-05-18T15:15:47.836Z,11.40
2018-05-18T15:21:08.589Z,11.03
2018-05-18T15:23:36.090Z,11.40
2018-05-18T15:26:03.600Z,11.47
2018-05-18T15:28:31.102Z,11.30
2018-05-18T15:30:58.601Z,10.47
2018-05-18T15:33:26.105Z,11.57
2018-05-18T15:35:53.610Z,11.70
2018-05-18T15:38:21.873Z,10.77
2018-05-18T15:40:50.138Z,10.63
2018-05-18T15:43:17.645Z,11.57
2018-05-18T15:45:45.150Z,11.10
2018-05-18T15:48:12.655Z,10.80
2018-05-18T15:50:40.157Z,10.43
2018-05-18T15:53:07.658Z,11.03
2018-05-18T15:55:35.165Z,11.23
2018-05-18T15:58:02.665Z,11.77
2018-05-18T16:00:30.941Z,10.03
2018-05-18T16:02:59.217Z,10.00
2018-05-18T16:05:27.482Z,10.93
2018-05-18T16:07:54.982Z,10.83
2018-05-18T16:10:22.485Z,10.83
2018-05-18T16:12:49.987Z,9.90
2018-05-18T16:18:10.534Z,11.07
2018-05-18T16:20:38.037Z,10.23
2018-05-18T16:25:58.006Z,10.50
2018-05-18T16:28:25.514Z,9.20
2018-05-18T16:30:53.793Z,9.77
2018-05-18T16:33:22.094Z,9.40
2018-05-18T16:35:49.589Z,10.03
2018-05-18T16:38:17.092Z,8.90
2018-05-18T16:40:45.360Z,8.60
2018-05-18T16:43:13.629Z,8.27
2018-05-18T16:45:41.897Z,9.10
2018-05-18T16:48:09.394Z,8.13
2018-05-18T16:50:36.897Z,7.90
2018-05-18T16:53:04.392Z,8.60
2018-05-18T16:55:32.660Z,8.60
2018-05-18T16:58:00.923Z,9.23
2018-05-18T17:00:28.429Z,8.97
2018-05-18T17:02:55.931Z,10.67
2018-05-18T17:05:23.433Z,8.67
2018-05-18T17:07:50.932Z,9.00
2018-05-18T17:10:18.461Z,8.53
2018-05-18T17:15:55.201Z,10.13
2018-05-18T17:21:16.578Z,8.70
2018-05-18T17:23:44.086Z,9.93
2018-05-18T17:26:11.585Z,8.83
2018-05-18T17:28:39.863Z,8.80
2018-05-18T17:31:08.123Z,9.53
2018-05-18T17:33:35.622Z,10.20
2018-05-18T17:36:03.122Z,8.90
2018-05-18T17:38:30.621Z,9.43
2018-05-18T17:40:58.889Z,9.50
2018-05-18T17:43:27.159Z,9.63
2018-05-18T17:45:54.662Z,9.80
2018-05-18T17:48:22.161Z,10.60
2018-05-18T17:50:49.663Z,8.97
2018-05-18T17:53:17.160Z,9.67
2018-05-18T17:55:44.654Z,9.07
2018-05-18T17:58:12.921Z,9.90
2018-05-18T18:00:40.430Z,9.47
2018-05-18T18:03:07.936Z,9.83
2018-05-18T18:05:35.441Z,10.60
2018-05-18T18:08:02.943Z,10.33
2018-05-18T18:10:30.446Z,9.63
2018-05-18T18:12:58.709Z,10.27
2018-05-18T18:15:43.806Z,10.23
2018-05-18T18:21:04.401Z,10.43
2018-05-18T18:23:32.675Z,11.33
2018-05-18T18:26:00.945Z,10.70
2018-05-18T18:28:28.503Z,11.20
2018-05-18T18:30:55.970Z,9.97
2018-05-18T18:33:24.249Z,10.37
2018-05-18T18:35:52.518Z,9.93
2018-05-18T18:38:20.786Z,10.53
2018-05-18T18:40:48.287Z,10.07
2018-05-18T18:43:15.785Z,9.97
2018-05-18T18:45:43.284Z,10.97
2018-05-18T18:48:11.567Z,10.37
2018-05-18T18:50:39.074Z,10.20
2018-05-18T18:53:06.578Z,11.07
2018-05-18T18:55:34.844Z,10.53
2018-05-18T18:58:03.101Z,9.97
2018-05-18T19:00:30.601Z,10.97
2018-05-18T19:02:58.121Z,10.77
2018-05-18T19:05:25.627Z,11.23
2018-05-18T19:07:53.132Z,9.57
2018-05-18T19:10:20.653Z,10.13
2018-05-18T19:15:40.857Z,10.33
2018-05-18T19:18:08.575Z,9.93
2018-05-18T19:20:36.081Z,10.50
2018-05-18T19:25:56.077Z,10.53
2018-05-18T19:28:23.589Z,10.03
2018-05-18T19:30:51.125Z,11.00
2018-05-18T19:33:18.625Z,10.40
2018-05-18T19:35:46.134Z,9.07
2018-05-18T19:38:13.638Z,10.73
2018-05-18T19:40:41.139Z,10.00
2018-05-18T19:43:08.637Z,10.27
2018-05-18T19:45:36.149Z,9.90
2018-05-18T19:48:03.646Z,9.63
2018-05-18T19:50:31.140Z,9.47
2018-05-18T19:52:59.406Z,10.70
2018-05-18T19:55:26.905Z,9.43
2018-05-18T19:57:54.416Z,10.33
2018-05-18T20:00:21.913Z,9.73
2018-05-18T20:02:49.418Z,10.77
2018-05-18T20:05:16.917Z,10.03
2018-05-18T20:07:45.190Z,10.20
2018-05-18T20:10:13.462Z,9.93
2018-05-18T20:12:41.038Z,9.80
2018-05-18T20:15:09.305Z,10.47
2018-05-18T20:17:37.572Z,9.67
2018-05-18T20:20:05.105Z,9.03
2018-05-18T20:22:33.380Z,10.97
2018-05-18T20:25:00.908Z,10.27
2018-05-18T20:27:28.408Z,9.83
2018-05-18T20:29:55.922Z,10.30
2018-05-18T20:32:23.425Z,11.17
2018-05-18T20:34:50.945Z,10.63
2018-05-18T20:37:18.464Z,11.23
2018-05-18T20:39:46.745Z,10.73
2018-05-18T20:42:15.013Z,11.27
2018-05-18T20:44:42.519Z,10.77
2018-05-18T20:47:10.021Z,10.47
2018-05-18T20:49:37.525Z,10.57
2018-05-18T20:52:05.018Z,9.63
2018-05-18T20:54:32.528Z,10.00
2018-05-18T20:57:00.798Z,10.37
2018-05-18T20:59:29.069Z,11.60
2018-05-18T21:01:57.342Z,11.27
2018-05-18T21:04:25.609Z,10.90
2018-05-18T21:06:53.113Z,11.10
2018-05-18T21:09:20.618Z,9.93
2018-05-18T21:11:48.130Z,10.77
2018-05-18T21:14:15.643Z,11.43
2018-05-18T21:19:36.172Z,11.70
2018-05-18T21:25:06.537Z,10.47
2018-05-18T21:27:34.803Z,11.73
2018-05-18T21:30:03.084Z,11.23
2018-05-18T21:32:31.356Z,9.97
2018-05-18T21:34:59.646Z,11.97
2018-05-18T21:37:27.158Z,11.10
2018-05-18T21:39:54.703Z,11.63
2018-05-18T21:42:22.216Z,11.83
2018-05-18T21:44:50.493Z,11.57
2018-05-18T21:47:18.764Z,11.33
2018-05-18T21:49:47.040Z,11.90
2018-05-18T21:52:15.314Z,11.13
2018-05-18T21:54:43.593Z,11.37
2018-05-18T21:57:11.886Z,10.53
2018-05-18T21:59:39.396Z,10.47
2018-05-18T22:02:06.912Z,11.27
2018-05-18T22:04:34.416Z,11.00
2018-05-18T22:07:01.924Z,11.10
2018-05-18T22:09:29.445Z,10.73
2018-05-18T22:11:56.954Z,24.27
2018-05-18T22:25:58.573Z,11.57
2018-05-18T22:28:26.841Z,11.53
2018-05-18T22:30:55.121Z,11.07
2018-05-18T22:33:23.403Z,10.87
2018-05-18T22:35:51.673Z,11.37
2018-05-18T22:38:19.948Z,11.13
2018-05-18T22:40:48.226Z,11.07
2018-05-18T22:43:16.499Z,10.87
2018-05-18T22:45:44.765Z,11.13
2018-05-18T22:48:12.269Z,12.00
2018-05-18T22:50:39.777Z,11.57
2018-05-18T22:53:07.283Z,12.03
2018-05-18T22:55:34.786Z,12.23
2018-05-18T22:58:02.304Z,12.13
2018-05-18T23:00:29.812Z,11.90
2018-05-18T23:02:57.323Z,12.03
2018-05-18T23:05:24.827Z,13.30
2018-05-18T23:07:52.345Z,11.93
2018-05-18T23:10:19.854Z,12.73
2018-05-18T23:15:39.985Z,12.97
2018-05-18T23:18:08.257Z,12.97
2018-05-18T23:20:39.346Z,13.47
2018-05-18T23:23:06.861Z,12.80
2018-05-18T23:25:35.133Z,12.67
2018-05-18T23:28:03.407Z,13.67
2018-05-18T23:30:31.678Z,13.40
2018-05-18T23:32:59.946Z,13.87
2018-05-18T23:35:27.453Z,13.67
2018-05-18T23:37:54.961Z,12.97
2018-05-18T23:40:22.469Z,13.90
2018-05-18T23:42:49.977Z,14.53
2018-05-18T23:45:17.489Z,15.23
2018-05-18T23:47:44.998Z,14.73
2018-05-18T23:50:12.501Z,13.90
2018-05-18T23:52:40.011Z,15.00
2018-05-18T23:55:07.513Z,14.37
2018-05-18T23:57:35.027Z,14.03
